sensor_id;sensor_type;location;lat;lon;timestamp;temperature;humidity
5924;DHT22;2987;50.884;14.818;2022-11-14T00:00:08;4.40;99.90
5924;DHT22;2987;50.884;14.818;2022-11-14T00:02:53;4.30;99.90
5924;DHT22;2987;50.884;14.818;2022-11-14T00:05:40;4.40;99.90
5924;DHT22;2987;50.884;14.818;2022-11-14T00:08:24;4.40;99.90
5924;DHT22;2987;50.884;14.818;2022-11-14T00:11:09;4.40;99.90
5924;DHT22;2987;50.884;14.818;2022-11-14T00:13:54;4.80;99.90
5924;DHT22;2987;50.884;14.818;2022-11-14T00:16:38;4.70;99.90
5924;DHT22;2987;50.884;14.818;2022-11-14T00:19:23;5.00;99.90
5924;DHT22;2987;50.884;14.818;2022-11-14T00:22:09;5.50;99.90
5924;DHT22;2987;50.884;14.818;2022-11-14T00:24:54;5.80;99.90
5924;DHT22;2987;50.884;14.818;2022-11-14T00:27:38;5.90;99.90
5924;DHT22;2987;50.884;14.818;2022-11-14T00:30:23;5.70;99.90
5924;DHT22;2987;50.884;14.818;2022-11-14T00:33:08;6.30;99.90
5924;DHT22;2987;50.884;14.818;2022-11-14T00:35:54;6.20;99.90
5924;DHT22;2987;50.884;14.818;2022-11-14T00:38:39;6.00;99.90
5924;DHT22;2987;50.884;14.818;2022-11-14T00:41:25;6.10;99.90
5924;DHT22;2987;50.884;14.818;2022-11-14T00:44:09;6.20;99.90
5924;DHT22;2987;50.884;14.818;2022-11-14T00:46:55;6.10;99.90
5924;DHT22;2987;50.884;14.818;2022-11-14T00:49:39;6.10;99.90
5924;DHT22;2987;50.884;14.818;2022-11-14T00:52:24;6.10;99.90
5924;DHT22;2987;50.884;14.818;2022-11-14T00:55:09;5.90;99.90
5924;DHT22;2987;50.884;14.818;2022-11-14T00:57:54;5.80;99.90
5924;DHT22;2987;50.884;14.818;2022-11-14T01:00:38;5.60;99.90
5924;DHT22;2987;50.884;14.818;2022-11-14T01:03:23;5.50;99.90
5924;DHT22;2987;50.884;14.818;2022-11-14T01:06:11;5.50;99.90
5924;DHT22;2987;50.884;14.818;2022-11-14T01:08:58;5.50;99.90
5924;DHT22;2987;50.884;14.818;2022-11-14T01:11:43;5.60;99.90
5924;DHT22;2987;50.884;14.818;2022-11-14T01:14:27;5.50;99.90
5924;DHT22;2987;50.884;14.818;2022-11-14T01:17:12;5.50;99.90
5924;DHT22;2987;50.884;14.818;2022-11-14T01:19:57;5.50;99.90
5924;DHT22;2987;50.884;14.818;2022-11-14T01:22:42;5.20;99.90
5924;DHT22;2987;50.884;14.818;2022-11-14T01:25:27;5.50;99.90
5924;DHT22;2987;50.884;14.818;2022-11-14T01:28:14;5.60;99.90
5924;DHT22;2987;50.884;14.818;2022-11-14T01:31:09;5.70;99.90
5924;DHT22;2987;50.884;14.818;2022-11-14T01:33:55;5.80;99.90
5924;DHT22;2987;50.884;14.818;2022-11-14T01:36:43;5.80;99.90
5924;DHT22;2987;50.884;14.818;2022-11-14T01:39:28;5.60;99.90
5924;DHT22;2987;50.884;14.818;2022-11-14T01:42:12;5.50;99.90
5924;DHT22;2987;50.884;14.818;2022-11-14T01:44:57;5.80;99.90
5924;DHT22;2987;50.884;14.818;2022-11-14T01:47:42;5.50;99.90
5924;DHT22;2987;50.884;14.818;2022-11-14T01:50:27;5.80;99.90
5924;DHT22;2987;50.884;14.818;2022-11-14T01:53:12;5.50;99.90
5924;DHT22;2987;50.884;14.818;2022-11-14T01:55:59;5.60;99.90
5924;DHT22;2987;50.884;14.818;2022-11-14T01:58:51;5.70;99.90
5924;DHT22;2987;50.884;14.818;2022-11-14T02:01:46;5.80;99.90
5924;DHT22;2987;50.884;14.818;2022-11-14T02:04:36;5.50;99.90
5924;DHT22;2987;50.884;14.818;2022-11-14T02:07:24;5.40;99.90
5924;DHT22;2987;50.884;14.818;2022-11-14T02:10:17;5.80;99.90
5924;DHT22;2987;50.884;14.818;2022-11-14T02:13:02;5.60;99.90
5924;DHT22;2987;50.884;14.818;2022-11-14T02:15:46;5.60;99.90
5924;DHT22;2987;50.884;14.818;2022-11-14T02:18:32;5.40;99.90
5924;DHT22;2987;50.884;14.818;2022-11-14T02:21:17;5.90;99.90
5924;DHT22;2987;50.884;14.818;2022-11-14T02:24:01;5.50;99.90
5924;DHT22;2987;50.884;14.818;2022-11-14T02:26:46;5.80;99.90
5924;DHT22;2987;50.884;14.818;2022-11-14T02:29:32;5.80;99.90
5924;DHT22;2987;50.884;14.818;2022-11-14T02:32:17;5.80;99.90
5924;DHT22;2987;50.884;14.818;2022-11-14T02:35:02;5.80;99.90
5924;DHT22;2987;50.884;14.818;2022-11-14T02:37:47;5.80;99.90
5924;DHT22;2987;50.884;14.818;2022-11-14T02:40:32;5.90;99.90
5924;DHT22;2987;50.884;14.818;2022-11-14T02:43:17;5.80;99.90
5924;DHT22;2987;50.884;14.818;2022-11-14T02:46:01;5.90;99.90
5924;DHT22;2987;50.884;14.818;2022-11-14T02:48:46;5.80;99.90
5924;DHT22;2987;50.884;14.818;2022-11-14T02:51:30;5.80;99.90
5924;DHT22;2987;50.884;14.818;2022-11-14T02:54:15;5.80;99.90
5924;DHT22;2987;50.884;14.818;2022-11-14T02:57:00;5.80;99.90
5924;DHT22;2987;50.884;14.818;2022-11-14T02:59:45;5.90;99.90
5924;DHT22;2987;50.884;14.818;2022-11-14T03:02:30;5.80;99.90
5924;DHT22;2987;50.884;14.818;2022-11-14T03:05:14;6.20;99.90
5924;DHT22;2987;50.884;14.818;2022-11-14T03:07:59;6.10;99.90
5924;DHT22;2987;50.884;14.818;2022-11-14T03:10:44;6.00;99.90
5924;DHT22;2987;50.884;14.818;2022-11-14T03:13:29;6.30;99.90
5924;DHT22;2987;50.884;14.818;2022-11-14T03:16:14;6.10;99.90
5924;DHT22;2987;50.884;14.818;2022-11-14T03:18:58;6.10;99.90
5924;DHT22;2987;50.884;14.818;2022-11-14T03:21:43;6.20;99.90
5924;DHT22;2987;50.884;14.818;2022-11-14T03:24:28;6.30;99.90
5924;DHT22;2987;50.884;14.818;2022-11-14T03:27:12;6.80;99.90
5924;DHT22;2987;50.884;14.818;2022-11-14T03:29:57;7.00;99.90
5924;DHT22;2987;50.884;14.818;2022-11-14T03:32:42;6.70;99.90
5924;DHT22;2987;50.884;14.818;2022-11-14T03:35:27;6.90;99.90
5924;DHT22;2987;50.884;14.818;2022-11-14T03:38:12;6.70;99.90
5924;DHT22;2987;50.884;14.818;2022-11-14T03:40:58;6.30;99.90
5924;DHT22;2987;50.884;14.818;2022-11-14T03:43:43;6.40;99.90
5924;DHT22;2987;50.884;14.818;2022-11-14T03:46:28;6.40;99.90
5924;DHT22;2987;50.884;14.818;2022-11-14T03:49:12;6.40;99.90
5924;DHT22;2987;50.884;14.818;2022-11-14T03:51:57;6.40;99.90
5924;DHT22;2987;50.884;14.818;2022-11-14T03:54:41;6.40;99.90
5924;DHT22;2987;50.884;14.818;2022-11-14T03:57:26;6.40;99.90
5924;DHT22;2987;50.884;14.818;2022-11-14T04:00:11;6.50;99.90
5924;DHT22;2987;50.884;14.818;2022-11-14T04:02:57;6.40;99.90
5924;DHT22;2987;50.884;14.818;2022-11-14T04:05:43;6.50;99.90
5924;DHT22;2987;50.884;14.818;2022-11-14T04:08:29;6.70;99.90
5924;DHT22;2987;50.884;14.818;2022-11-14T04:11:13;6.60;99.90
5924;DHT22;2987;50.884;14.818;2022-11-14T04:13:58;6.30;99.90
5924;DHT22;2987;50.884;14.818;2022-11-14T04:16:42;6.70;99.90
5924;DHT22;2987;50.884;14.818;2022-11-14T04:19:27;6.70;99.90
5924;DHT22;2987;50.884;14.818;2022-11-14T04:22:12;6.70;99.90
5924;DHT22;2987;50.884;14.818;2022-11-14T04:24:56;6.60;99.90
5924;DHT22;2987;50.884;14.818;2022-11-14T04:27:42;6.50;99.90
5924;DHT22;2987;50.884;14.818;2022-11-14T04:30:26;6.50;99.90
5924;DHT22;2987;50.884;14.818;2022-11-14T04:33:11;6.70;99.90
5924;DHT22;2987;50.884;14.818;2022-11-14T04:35:56;6.90;99.90
5924;DHT22;2987;50.884;14.818;2022-11-14T04:38:41;6.60;99.90
5924;DHT22;2987;50.884;14.818;2022-11-14T04:41:25;6.70;99.90
5924;DHT22;2987;50.884;14.818;2022-11-14T04:44:10;6.70;99.90
5924;DHT22;2987;50.884;14.818;2022-11-14T04:46:57;6.70;99.90
5924;DHT22;2987;50.884;14.818;2022-11-14T04:49:42;6.70;99.90
5924;DHT22;2987;50.884;14.818;2022-11-14T04:52:27;7.00;99.90
5924;DHT22;2987;50.884;14.818;2022-11-14T04:55:11;7.10;99.90
5924;DHT22;2987;50.884;14.818;2022-11-14T04:57:57;7.10;99.90
5924;DHT22;2987;50.884;14.818;2022-11-14T05:00:42;7.00;99.90
5924;DHT22;2987;50.884;14.818;2022-11-14T05:03:26;6.80;99.90
5924;DHT22;2987;50.884;14.818;2022-11-14T05:06:11;6.90;99.90
5924;DHT22;2987;50.884;14.818;2022-11-14T05:08:56;6.70;99.90
5924;DHT22;2987;50.884;14.818;2022-11-14T05:11:41;6.90;99.90
5924;DHT22;2987;50.884;14.818;2022-11-14T05:14:25;7.00;99.90
5924;DHT22;2987;50.884;14.818;2022-11-14T05:17:10;6.90;99.90
5924;DHT22;2987;50.884;14.818;2022-11-14T05:19:54;6.80;99.90
5924;DHT22;2987;50.884;14.818;2022-11-14T05:22:39;6.70;99.90
5924;DHT22;2987;50.884;14.818;2022-11-14T05:25:24;6.70;99.90
5924;DHT22;2987;50.884;14.818;2022-11-14T05:28:09;6.60;99.90
5924;DHT22;2987;50.884;14.818;2022-11-14T05:31:04;6.70;99.90
5924;DHT22;2987;50.884;14.818;2022-11-14T05:33:49;6.50;99.90
5924;DHT22;2987;50.884;14.818;2022-11-14T05:36:34;6.20;99.90
5924;DHT22;2987;50.884;14.818;2022-11-14T05:39:19;6.50;99.90
5924;DHT22;2987;50.884;14.818;2022-11-14T05:42:04;6.20;99.90
5924;DHT22;2987;50.884;14.818;2022-11-14T05:44:49;6.10;99.90
5924;DHT22;2987;50.884;14.818;2022-11-14T05:47:34;6.10;99.90
5924;DHT22;2987;50.884;14.818;2022-11-14T05:50:19;6.10;99.90
5924;DHT22;2987;50.884;14.818;2022-11-14T05:53:06;5.90;99.90
5924;DHT22;2987;50.884;14.818;2022-11-14T05:55:51;5.80;99.90
5924;DHT22;2987;50.884;14.818;2022-11-14T05:58:37;5.90;99.90
5924;DHT22;2987;50.884;14.818;2022-11-14T06:01:22;5.70;99.90
5924;DHT22;2987;50.884;14.818;2022-11-14T06:04:06;5.80;99.90
5924;DHT22;2987;50.884;14.818;2022-11-14T06:06:51;5.80;99.90
5924;DHT22;2987;50.884;14.818;2022-11-14T06:09:36;5.60;99.90
5924;DHT22;2987;50.884;14.818;2022-11-14T06:12:20;5.40;99.90
5924;DHT22;2987;50.884;14.818;2022-11-14T06:15:05;5.40;99.90
5924;DHT22;2987;50.884;14.818;2022-11-14T06:17:52;5.40;99.90
5924;DHT22;2987;50.884;14.818;2022-11-14T06:20:37;5.30;99.90
5924;DHT22;2987;50.884;14.818;2022-11-14T06:23:22;5.50;99.90
5924;DHT22;2987;50.884;14.818;2022-11-14T06:26:19;5.30;99.90
5924;DHT22;2987;50.884;14.818;2022-11-14T06:29:04;5.20;99.90
5924;DHT22;2987;50.884;14.818;2022-11-14T06:31:49;5.30;99.90
5924;DHT22;2987;50.884;14.818;2022-11-14T06:34:37;5.20;99.90
5924;DHT22;2987;50.884;14.818;2022-11-14T06:37:22;5.20;99.90
5924;DHT22;2987;50.884;14.818;2022-11-14T06:40:07;5.30;99.90
5924;DHT22;2987;50.884;14.818;2022-11-14T06:42:54;5.30;99.90
5924;DHT22;2987;50.884;14.818;2022-11-14T06:45:40;5.30;99.90
5924;DHT22;2987;50.884;14.818;2022-11-14T06:48:25;5.20;99.90
5924;DHT22;2987;50.884;14.818;2022-11-14T06:51:11;5.20;99.90
5924;DHT22;2987;50.884;14.818;2022-11-14T06:53:56;5.20;99.90
5924;DHT22;2987;50.884;14.818;2022-11-14T06:56:41;5.20;99.90
5924;DHT22;2987;50.884;14.818;2022-11-14T06:59:25;5.60;99.90
5924;DHT22;2987;50.884;14.818;2022-11-14T07:02:11;5.40;99.90
5924;DHT22;2987;50.884;14.818;2022-11-14T07:04:56;5.30;99.90
5924;DHT22;2987;50.884;14.818;2022-11-14T07:07:41;5.40;99.90
5924;DHT22;2987;50.884;14.818;2022-11-14T07:10:26;5.40;99.90
5924;DHT22;2987;50.884;14.818;2022-11-14T07:13:11;5.30;99.90
5924;DHT22;2987;50.884;14.818;2022-11-14T07:15:56;5.40;99.90
5924;DHT22;2987;50.884;14.818;2022-11-14T07:18:41;5.50;99.90
5924;DHT22;2987;50.884;14.818;2022-11-14T07:21:28;5.80;99.90
5924;DHT22;2987;50.884;14.818;2022-11-14T07:24:13;5.90;99.90
5924;DHT22;2987;50.884;14.818;2022-11-14T07:26:58;6.40;99.90
5924;DHT22;2987;50.884;14.818;2022-11-14T07:29:43;6.90;99.90
5924;DHT22;2987;50.884;14.818;2022-11-14T07:32:28;7.30;99.90
5924;DHT22;2987;50.884;14.818;2022-11-14T07:35:12;7.30;99.90
5924;DHT22;2987;50.884;14.818;2022-11-14T07:38:01;7.50;99.90
5924;DHT22;2987;50.884;14.818;2022-11-14T07:41:05;7.90;99.90
5924;DHT22;2987;50.884;14.818;2022-11-14T07:43:50;8.00;99.90
5924;DHT22;2987;50.884;14.818;2022-11-14T07:46:35;7.60;99.90
5924;DHT22;2987;50.884;14.818;2022-11-14T07:49:20;7.80;99.90
5924;DHT22;2987;50.884;14.818;2022-11-14T07:52:04;7.80;99.90
5924;DHT22;2987;50.884;14.818;2022-11-14T07:54:50;7.70;99.90
5924;DHT22;2987;50.884;14.818;2022-11-14T07:57:35;7.30;99.90
5924;DHT22;2987;50.884;14.818;2022-11-14T08:00:19;7.30;99.90
5924;DHT22;2987;50.884;14.818;2022-11-14T08:03:06;7.30;99.90
5924;DHT22;2987;50.884;14.818;2022-11-14T08:05:52;7.60;99.90
5924;DHT22;2987;50.884;14.818;2022-11-14T08:08:46;7.60;99.90
5924;DHT22;2987;50.884;14.818;2022-11-14T08:11:31;7.70;99.90
5924;DHT22;2987;50.884;14.818;2022-11-14T08:14:32;8.20;99.90
5924;DHT22;2987;50.884;14.818;2022-11-14T08:17:16;8.60;99.90
5924;DHT22;2987;50.884;14.818;2022-11-14T08:20:02;8.70;99.90
5924;DHT22;2987;50.884;14.818;2022-11-14T08:22:47;8.60;99.90
5924;DHT22;2987;50.884;14.818;2022-11-14T08:25:32;8.50;99.90
5924;DHT22;2987;50.884;14.818;2022-11-14T08:28:17;8.60;99.90
5924;DHT22;2987;50.884;14.818;2022-11-14T08:31:03;8.50;99.90
5924;DHT22;2987;50.884;14.818;2022-11-14T08:33:48;8.60;99.90
5924;DHT22;2987;50.884;14.818;2022-11-14T08:36:34;8.60;99.90
5924;DHT22;2987;50.884;14.818;2022-11-14T08:39:19;8.90;99.90
5924;DHT22;2987;50.884;14.818;2022-11-14T08:42:03;9.00;99.90
5924;DHT22;2987;50.884;14.818;2022-11-14T08:44:48;8.80;99.90
5924;DHT22;2987;50.884;14.818;2022-11-14T08:47:33;8.90;99.90
5924;DHT22;2987;50.884;14.818;2022-11-14T08:50:18;9.00;99.90
5924;DHT22;2987;50.884;14.818;2022-11-14T08:53:03;9.10;99.90
5924;DHT22;2987;50.884;14.818;2022-11-14T08:55:48;9.30;99.90
5924;DHT22;2987;50.884;14.818;2022-11-14T08:58:33;9.20;99.90
5924;DHT22;2987;50.884;14.818;2022-11-14T09:01:17;9.50;99.90
5924;DHT22;2987;50.884;14.818;2022-11-14T09:04:02;9.60;99.90
5924;DHT22;2987;50.884;14.818;2022-11-14T09:06:48;9.80;99.90
5924;DHT22;2987;50.884;14.818;2022-11-14T09:09:32;9.70;99.90
5924;DHT22;2987;50.884;14.818;2022-11-14T09:12:17;9.60;99.90
5924;DHT22;2987;50.884;14.818;2022-11-14T09:15:01;9.50;99.90
5924;DHT22;2987;50.884;14.818;2022-11-14T09:17:46;9.60;99.90
5924;DHT22;2987;50.884;14.818;2022-11-14T09:20:31;9.90;99.90
5924;DHT22;2987;50.884;14.818;2022-11-14T09:23:15;10.00;99.90
5924;DHT22;2987;50.884;14.818;2022-11-14T09:26:09;9.90;99.90
5924;DHT22;2987;50.884;14.818;2022-11-14T09:28:54;10.20;99.90
5924;DHT22;2987;50.884;14.818;2022-11-14T09:31:38;10.30;99.90
5924;DHT22;2987;50.884;14.818;2022-11-14T09:34:23;10.30;99.90
5924;DHT22;2987;50.884;14.818;2022-11-14T09:37:08;10.60;99.90
5924;DHT22;2987;50.884;14.818;2022-11-14T09:39:53;10.60;99.90
5924;DHT22;2987;50.884;14.818;2022-11-14T09:42:56;10.70;99.90
5924;DHT22;2987;50.884;14.818;2022-11-14T09:45:47;10.80;99.90
5924;DHT22;2987;50.884;14.818;2022-11-14T09:48:33;11.00;99.90
5924;DHT22;2987;50.884;14.818;2022-11-14T09:51:21;11.00;99.90
5924;DHT22;2987;50.884;14.818;2022-11-14T09:54:27;11.00;99.90
5924;DHT22;2987;50.884;14.818;2022-11-14T09:57:15;11.20;99.90
5924;DHT22;2987;50.884;14.818;2022-11-14T10:00:01;11.20;99.90
5924;DHT22;2987;50.884;14.818;2022-11-14T10:03:09;11.20;99.90
5924;DHT22;2987;50.884;14.818;2022-11-14T10:09:14;12.10;99.90
5924;DHT22;2987;50.884;14.818;2022-11-14T10:15:16;13.20;99.90
5924;DHT22;2987;50.884;14.818;2022-11-14T10:18:28;13.60;99.90
5924;DHT22;2987;50.884;14.818;2022-11-14T10:21:23;13.90;99.90
5924;DHT22;2987;50.884;14.818;2022-11-14T10:24:36;14.10;99.90
5924;DHT22;2987;50.884;14.818;2022-11-14T10:30:20;14.20;99.90
5924;DHT22;2987;50.884;14.818;2022-11-14T10:36:06;14.60;99.90
5924;DHT22;2987;50.884;14.818;2022-11-14T10:39:06;14.70;99.90
5924;DHT22;2987;50.884;14.818;2022-11-14T10:41:58;14.50;99.90
5924;DHT22;2987;50.884;14.818;2022-11-14T10:44:53;14.40;99.90
5924;DHT22;2987;50.884;14.818;2022-11-14T10:47:47;14.40;99.90
5924;DHT22;2987;50.884;14.818;2022-11-14T10:50:42;14.50;99.90
5924;DHT22;2987;50.884;14.818;2022-11-14T10:53:53;14.40;99.90
5924;DHT22;2987;50.884;14.818;2022-11-14T10:56:55;14.50;99.90
5924;DHT22;2987;50.884;14.818;2022-11-14T10:59:40;14.60;99.90
5924;DHT22;2987;50.884;14.818;2022-11-14T11:05:14;14.60;99.90
5924;DHT22;2987;50.884;14.818;2022-11-14T11:07:59;14.80;99.90
5924;DHT22;2987;50.884;14.818;2022-11-14T11:11:10;14.70;99.90
5924;DHT22;2987;50.884;14.818;2022-11-14T11:14:17;14.50;99.90
5924;DHT22;2987;50.884;14.818;2022-11-14T11:17:20;14.40;99.90
5924;DHT22;2987;50.884;14.818;2022-11-14T11:20:29;14.30;99.90
5924;DHT22;2987;50.884;14.818;2022-11-14T11:23:21;14.20;99.90
5924;DHT22;2987;50.884;14.818;2022-11-14T11:26:18;14.20;99.90
5924;DHT22;2987;50.884;14.818;2022-11-14T11:29:15;14.00;99.90
5924;DHT22;2987;50.884;14.818;2022-11-14T11:32:01;13.90;99.90
5924;DHT22;2987;50.884;14.818;2022-11-14T11:34:47;13.80;99.90
5924;DHT22;2987;50.884;14.818;2022-11-14T11:37:38;13.70;99.90
5924;DHT22;2987;50.884;14.818;2022-11-14T11:40:26;13.70;99.90
5924;DHT22;2987;50.884;14.818;2022-11-14T11:43:24;13.70;99.90
5924;DHT22;2987;50.884;14.818;2022-11-14T11:46:19;13.60;99.90
5924;DHT22;2987;50.884;14.818;2022-11-14T11:49:17;13.70;99.90
5924;DHT22;2987;50.884;14.818;2022-11-14T11:58:28;13.80;99.90
5924;DHT22;2987;50.884;14.818;2022-11-14T12:01:14;13.70;99.90
5924;DHT22;2987;50.884;14.818;2022-11-14T12:03:59;13.70;99.90
5924;DHT22;2987;50.884;14.818;2022-11-14T12:06:53;13.70;99.90
5924;DHT22;2987;50.884;14.818;2022-11-14T12:09:41;13.60;99.90
5924;DHT22;2987;50.884;14.818;2022-11-14T12:12:48;13.60;99.90
5924;DHT22;2987;50.884;14.818;2022-11-14T12:15:48;13.40;99.90
5924;DHT22;2987;50.884;14.818;2022-11-14T12:22:16;13.10;99.90
5924;DHT22;2987;50.884;14.818;2022-11-14T12:25:33;13.00;99.90
5924;DHT22;2987;50.884;14.818;2022-11-14T12:28:47;12.90;99.90
5924;DHT22;2987;50.884;14.818;2022-11-14T12:34:29;12.80;99.90
5924;DHT22;2987;50.884;14.818;2022-11-14T12:37:22;12.90;99.90
5924;DHT22;2987;50.884;14.818;2022-11-14T12:43:34;12.60;99.90
5924;DHT22;2987;50.884;14.818;2022-11-14T13:02:00;12.40;99.90
5924;DHT22;2987;50.884;14.818;2022-11-14T13:10:47;12.50;99.90
5924;DHT22;2987;50.884;14.818;2022-11-14T13:13:31;12.50;99.90
5924;DHT22;2987;50.884;14.818;2022-11-14T13:17:09;12.30;99.90
5924;DHT22;2987;50.884;14.818;2022-11-14T13:20:31;12.20;99.90
5924;DHT22;2987;50.884;14.818;2022-11-14T13:23:53;12.20;99.90
5924;DHT22;2987;50.884;14.818;2022-11-14T13:26:41;12.20;99.90
5924;DHT22;2987;50.884;14.818;2022-11-14T13:29:46;12.40;99.90
5924;DHT22;2987;50.884;14.818;2022-11-14T13:32:51;12.10;99.90
5924;DHT22;2987;50.884;14.818;2022-11-14T13:35:43;12.10;99.90
5924;DHT22;2987;50.884;14.818;2022-11-14T13:38:49;12.00;99.90
5924;DHT22;2987;50.884;14.818;2022-11-14T13:42:01;12.00;99.90
5924;DHT22;2987;50.884;14.818;2022-11-14T13:45:12;12.00;99.90
5924;DHT22;2987;50.884;14.818;2022-11-14T13:54:13;11.70;99.90
5924;DHT22;2987;50.884;14.818;2022-11-14T14:00:00;11.70;99.90
5924;DHT22;2987;50.884;14.818;2022-11-14T14:03:11;11.80;99.90
5924;DHT22;2987;50.884;14.818;2022-11-14T14:06:17;11.60;99.90
5924;DHT22;2987;50.884;14.818;2022-11-14T14:09:21;11.60;99.90
5924;DHT22;2987;50.884;14.818;2022-11-14T14:18:36;11.30;99.90
5924;DHT22;2987;50.884;14.818;2022-11-14T14:21:35;11.20;99.90
5924;DHT22;2987;50.884;14.818;2022-11-14T14:24:48;11.10;99.90
5924;DHT22;2987;50.884;14.818;2022-11-14T14:27:49;10.90;99.90
5924;DHT22;2987;50.884;14.818;2022-11-14T14:30:36;10.80;99.90
5924;DHT22;2987;50.884;14.818;2022-11-14T14:33:21;10.70;99.90
5924;DHT22;2987;50.884;14.818;2022-11-14T14:36:19;10.60;99.90
5924;DHT22;2987;50.884;14.818;2022-11-14T14:39:14;10.70;99.90
5924;DHT22;2987;50.884;14.818;2022-11-14T14:42:01;10.30;99.90
5924;DHT22;2987;50.884;14.818;2022-11-14T14:44:54;10.40;99.90
5924;DHT22;2987;50.884;14.818;2022-11-14T14:47:42;10.40;99.90
5924;DHT22;2987;50.884;14.818;2022-11-14T14:50:34;10.40;99.90
5924;DHT22;2987;50.884;14.818;2022-11-14T14:53:23;10.30;99.90
5924;DHT22;2987;50.884;14.818;2022-11-14T14:56:24;10.30;99.90
5924;DHT22;2987;50.884;14.818;2022-11-14T14:59:17;10.30;99.90
5924;DHT22;2987;50.884;14.818;2022-11-14T15:02:03;10.00;99.90
5924;DHT22;2987;50.884;14.818;2022-11-14T15:04:47;9.90;99.90
5924;DHT22;2987;50.884;14.818;2022-11-14T15:07:32;10.00;99.90
5924;DHT22;2987;50.884;14.818;2022-11-14T15:10:22;9.60;99.90
5924;DHT22;2987;50.884;14.818;2022-11-14T15:13:10;10.10;99.90
5924;DHT22;2987;50.884;14.818;2022-11-14T15:15:58;9.60;99.90
5924;DHT22;2987;50.884;14.818;2022-11-14T15:18:43;9.60;99.90
5924;DHT22;2987;50.884;14.818;2022-11-14T15:21:29;9.50;99.90
5924;DHT22;2987;50.884;14.818;2022-11-14T15:24:19;9.70;99.90
5924;DHT22;2987;50.884;14.818;2022-11-14T15:27:12;9.40;99.90
5924;DHT22;2987;50.884;14.818;2022-11-14T15:30:02;9.50;99.90
5924;DHT22;2987;50.884;14.818;2022-11-14T15:32:50;9.20;99.90
5924;DHT22;2987;50.884;14.818;2022-11-14T15:35:37;9.10;99.90
5924;DHT22;2987;50.884;14.818;2022-11-14T15:38:22;9.20;99.90
5924;DHT22;2987;50.884;14.818;2022-11-14T15:41:20;8.90;99.90
5924;DHT22;2987;50.884;14.818;2022-11-14T15:44:05;8.90;99.90
5924;DHT22;2987;50.884;14.818;2022-11-14T15:46:49;8.90;99.90
5924;DHT22;2987;50.884;14.818;2022-11-14T15:49:34;8.90;99.90
5924;DHT22;2987;50.884;14.818;2022-11-14T15:52:24;8.80;99.90
5924;DHT22;2987;50.884;14.818;2022-11-14T15:55:14;9.00;99.90
5924;DHT22;2987;50.884;14.818;2022-11-14T15:57:59;9.20;99.90
5924;DHT22;2987;50.884;14.818;2022-11-14T16:00:49;9.20;99.90
5924;DHT22;2987;50.884;14.818;2022-11-14T16:03:34;9.30;99.90
5924;DHT22;2987;50.884;14.818;2022-11-14T16:06:19;8.90;99.90
5924;DHT22;2987;50.884;14.818;2022-11-14T16:09:03;9.00;99.90
5924;DHT22;2987;50.884;14.818;2022-11-14T16:11:48;9.40;99.90
5924;DHT22;2987;50.884;14.818;2022-11-14T16:14:33;9.00;99.90
5924;DHT22;2987;50.884;14.818;2022-11-14T16:17:17;9.10;99.90
5924;DHT22;2987;50.884;14.818;2022-11-14T16:20:04;9.00;99.90
5924;DHT22;2987;50.884;14.818;2022-11-14T16:22:50;9.00;99.90
5924;DHT22;2987;50.884;14.818;2022-11-14T16:25:36;9.00;99.90
5924;DHT22;2987;50.884;14.818;2022-11-14T16:28:21;8.80;99.90
5924;DHT22;2987;50.884;14.818;2022-11-14T16:31:13;9.00;99.90
5924;DHT22;2987;50.884;14.818;2022-11-14T16:33:58;8.80;99.90
5924;DHT22;2987;50.884;14.818;2022-11-14T16:36:43;8.90;99.90
5924;DHT22;2987;50.884;14.818;2022-11-14T16:39:29;9.00;99.90
5924;DHT22;2987;50.884;14.818;2022-11-14T16:42:14;8.80;99.90
5924;DHT22;2987;50.884;14.818;2022-11-14T16:44:59;8.70;99.90
5924;DHT22;2987;50.884;14.818;2022-11-14T16:47:46;8.60;99.90
5924;DHT22;2987;50.884;14.818;2022-11-14T16:50:30;8.60;99.90
5924;DHT22;2987;50.884;14.818;2022-11-14T16:53:15;8.40;99.90
5924;DHT22;2987;50.884;14.818;2022-11-14T16:56:00;8.30;99.90
5924;DHT22;2987;50.884;14.818;2022-11-14T16:58:45;8.30;99.90
5924;DHT22;2987;50.884;14.818;2022-11-14T17:01:30;8.20;99.90
5924;DHT22;2987;50.884;14.818;2022-11-14T17:04:14;8.40;99.90
5924;DHT22;2987;50.884;14.818;2022-11-14T17:06:59;8.40;99.90
5924;DHT22;2987;50.884;14.818;2022-11-14T17:09:44;8.00;99.90
5924;DHT22;2987;50.884;14.818;2022-11-14T17:12:29;8.30;99.90
5924;DHT22;2987;50.884;14.818;2022-11-14T17:15:15;8.50;99.90
5924;DHT22;2987;50.884;14.818;2022-11-14T17:18:00;8.70;99.90
5924;DHT22;2987;50.884;14.818;2022-11-14T17:20:45;8.60;99.90
5924;DHT22;2987;50.884;14.818;2022-11-14T17:23:30;8.40;99.90
5924;DHT22;2987;50.884;14.818;2022-11-14T17:26:14;8.50;99.90
5924;DHT22;2987;50.884;14.818;2022-11-14T17:28:59;8.70;99.90
5924;DHT22;2987;50.884;14.818;2022-11-14T17:31:43;8.90;99.90
5924;DHT22;2987;50.884;14.818;2022-11-14T17:34:28;8.80;99.90
5924;DHT22;2987;50.884;14.818;2022-11-14T17:37:13;9.00;99.90
5924;DHT22;2987;50.884;14.818;2022-11-14T17:39:58;8.90;99.90
5924;DHT22;2987;50.884;14.818;2022-11-14T17:42:42;8.90;99.90
5924;DHT22;2987;50.884;14.818;2022-11-14T17:45:27;8.80;99.90
5924;DHT22;2987;50.884;14.818;2022-11-14T17:48:12;8.70;99.90
5924;DHT22;2987;50.884;14.818;2022-11-14T17:51:03;8.90;99.90
5924;DHT22;2987;50.884;14.818;2022-11-14T17:53:51;8.90;99.90
5924;DHT22;2987;50.884;14.818;2022-11-14T17:56:36;8.80;99.90
5924;DHT22;2987;50.884;14.818;2022-11-14T17:59:21;8.80;99.90
5924;DHT22;2987;50.884;14.818;2022-11-14T18:02:05;9.00;99.90
5924;DHT22;2987;50.884;14.818;2022-11-14T18:04:50;9.10;99.90
5924;DHT22;2987;50.884;14.818;2022-11-14T18:07:34;9.30;99.90
5924;DHT22;2987;50.884;14.818;2022-11-14T18:10:19;9.10;99.90
5924;DHT22;2987;50.884;14.818;2022-11-14T18:13:04;9.20;99.90
5924;DHT22;2987;50.884;14.818;2022-11-14T18:15:49;9.40;99.90
5924;DHT22;2987;50.884;14.818;2022-11-14T18:18:34;9.40;99.90
5924;DHT22;2987;50.884;14.818;2022-11-14T18:21:22;9.70;99.90
5924;DHT22;2987;50.884;14.818;2022-11-14T18:24:11;9.60;99.90
5924;DHT22;2987;50.884;14.818;2022-11-14T18:26:56;9.50;99.90
5924;DHT22;2987;50.884;14.818;2022-11-14T18:29:42;9.70;99.90
5924;DHT22;2987;50.884;14.818;2022-11-14T18:32:27;9.70;99.90
5924;DHT22;2987;50.884;14.818;2022-11-14T18:35:11;9.60;99.90
5924;DHT22;2987;50.884;14.818;2022-11-14T18:37:56;9.50;99.90
5924;DHT22;2987;50.884;14.818;2022-11-14T18:40:42;9.60;99.90
5924;DHT22;2987;50.884;14.818;2022-11-14T18:43:27;9.60;99.90
5924;DHT22;2987;50.884;14.818;2022-11-14T18:46:18;9.60;99.90
5924;DHT22;2987;50.884;14.818;2022-11-14T18:49:02;9.60;99.90
5924;DHT22;2987;50.884;14.818;2022-11-14T18:51:47;9.60;99.90
5924;DHT22;2987;50.884;14.818;2022-11-14T18:54:32;9.90;99.90
5924;DHT22;2987;50.884;14.818;2022-11-14T18:57:18;9.70;99.90
5924;DHT22;2987;50.884;14.818;2022-11-14T19:00:04;9.60;99.90
5924;DHT22;2987;50.884;14.818;2022-11-14T19:02:49;9.80;99.90
5924;DHT22;2987;50.884;14.818;2022-11-14T19:05:34;9.60;99.90
5924;DHT22;2987;50.884;14.818;2022-11-14T19:08:20;9.50;99.90
5924;DHT22;2987;50.884;14.818;2022-11-14T19:11:08;9.70;99.90
5924;DHT22;2987;50.884;14.818;2022-11-14T19:14:13;9.90;99.90
5924;DHT22;2987;50.884;14.818;2022-11-14T19:16:57;9.70;99.90
5924;DHT22;2987;50.884;14.818;2022-11-14T19:19:43;9.60;99.90